sensor_id;sensor_type;location;lat;lon;timestamp;P1;durP1;ratioP1;P2;durP2;ratioP2
13797;SDS011;6970;51.340;3.240;2023-07-28T00:00:42;18.43;;;11.43;;
13797;SDS011;6970;51.340;3.240;2023-07-28T00:03:10;21.93;;;12.60;;
13797;SDS011;6970;51.340;3.240;2023-07-28T00:05:39;19.80;;;13.33;;
13797;SDS011;6970;51.340;3.240;2023-07-28T00:08:07;21.03;;;13.10;;
13797;SDS011;6970;51.340;3.240;2023-07-28T00:10:39;19.37;;;10.90;;
13797;SDS011;6970;51.340;3.240;2023-07-28T00:13:09;18.43;;;11.33;;
13797;SDS011;6970;51.340;3.240;2023-07-28T00:15:38;16.40;;;9.27;;
13797;SDS011;6970;51.340;3.240;2023-07-28T00:18:06;16.37;;;9.43;;
13797;SDS011;6970;51.340;3.240;2023-07-28T00:23:03;14.37;;;8.43;;
13797;SDS011;6970;51.340;3.240;2023-07-28T00:25:34;16.67;;;7.80;;
13797;SDS011;6970;51.340;3.240;2023-07-28T00:28:03;9.30;;;5.83;;
13797;SDS011;6970;51.340;3.240;2023-07-28T00:30:31;10.20;;;5.60;;
13797;SDS011;6970;51.340;3.240;2023-07-28T00:33:00;10.20;;;5.53;;
13797;SDS011;6970;51.340;3.240;2023-07-28T00:35:28;10.70;;;5.13;;
13797;SDS011;6970;51.340;3.240;2023-07-28T00:37:55;14.43;;;5.47;;
13797;SDS011;6970;51.340;3.240;2023-07-28T00:40:23;7.03;;;4.20;;
13797;SDS011;6970;51.340;3.240;2023-07-28T00:42:50;10.87;;;5.37;;
13797;SDS011;6970;51.340;3.240;2023-07-28T00:47:49;10.27;;;4.83;;
13797;SDS011;6970;51.340;3.240;2023-07-28T00:50:17;11.17;;;5.57;;
13797;SDS011;6970;51.340;3.240;2023-07-28T00:52:48;10.90;;;4.50;;
13797;SDS011;6970;51.340;3.240;2023-07-28T00:55:15;10.70;;;4.67;;
13797;SDS011;6970;51.340;3.240;2023-07-28T00:57:43;13.40;;;3.97;;
13797;SDS011;6970;51.340;3.240;2023-07-28T01:00:11;8.67;;;3.87;;
13797;SDS011;6970;51.340;3.240;2023-07-28T01:02:38;11.77;;;4.57;;
13797;SDS011;6970;51.340;3.240;2023-07-28T01:05:13;10.80;;;4.23;;
13797;SDS011;6970;51.340;3.240;2023-07-28T01:07:47;11.57;;;4.63;;
13797;SDS011;6970;51.340;3.240;2023-07-28T01:10:30;12.67;;;3.80;;
13797;SDS011;6970;51.340;3.240;2023-07-28T01:15:28;11.80;;;4.03;;
13797;SDS011;6970;51.340;3.240;2023-07-28T01:17:56;9.17;;;3.83;;
13797;SDS011;6970;51.340;3.240;2023-07-28T01:20:24;9.87;;;3.90;;
13797;SDS011;6970;51.340;3.240;2023-07-28T01:26:12;16.07;;;4.50;;
13797;SDS011;6970;51.340;3.240;2023-07-28T01:28:44;11.87;;;4.30;;
13797;SDS011;6970;51.340;3.240;2023-07-28T01:31:13;11.77;;;5.10;;
13797;SDS011;6970;51.340;3.240;2023-07-28T01:33:42;12.90;;;5.47;;
13797;SDS011;6970;51.340;3.240;2023-07-28T01:36:10;13.50;;;5.93;;
13797;SDS011;6970;51.340;3.240;2023-07-28T01:38:39;14.53;;;5.77;;
13797;SDS011;6970;51.340;3.240;2023-07-28T01:41:08;11.67;;;5.07;;
13797;SDS011;6970;51.340;3.240;2023-07-28T01:43:36;12.63;;;5.63;;
13797;SDS011;6970;51.340;3.240;2023-07-28T01:46:05;11.20;;;5.53;;
13797;SDS011;6970;51.340;3.240;2023-07-28T01:48:32;11.50;;;5.07;;
13797;SDS011;6970;51.340;3.240;2023-07-28T01:50:59;13.97;;;5.30;;
13797;SDS011;6970;51.340;3.240;2023-07-28T01:53:26;16.13;;;5.37;;
13797;SDS011;6970;51.340;3.240;2023-07-28T01:55:59;10.73;;;4.83;;
13797;SDS011;6970;51.340;3.240;2023-07-28T02:01:01;16.57;;;5.47;;
13797;SDS011;6970;51.340;3.240;2023-07-28T02:03:30;14.37;;;5.77;;
13797;SDS011;6970;51.340;3.240;2023-07-28T02:05:58;15.67;;;5.43;;
13797;SDS011;6970;51.340;3.240;2023-07-28T02:08:28;19.97;;;6.37;;
13797;SDS011;6970;51.340;3.240;2023-07-28T02:10:59;13.50;;;6.07;;
13797;SDS011;6970;51.340;3.240;2023-07-28T02:13:27;18.10;;;5.80;;
13797;SDS011;6970;51.340;3.240;2023-07-28T02:15:55;12.30;;;4.93;;
13797;SDS011;6970;51.340;3.240;2023-07-28T02:18:22;14.40;;;5.83;;
13797;SDS011;6970;51.340;3.240;2023-07-28T02:23:21;18.27;;;5.70;;
13797;SDS011;6970;51.340;3.240;2023-07-28T02:25:54;13.37;;;6.00;;
13797;SDS011;6970;51.340;3.240;2023-07-28T02:28:21;14.10;;;6.60;;
13797;SDS011;6970;51.340;3.240;2023-07-28T02:30:50;25.27;;;6.60;;
13797;SDS011;6970;51.340;3.240;2023-07-28T02:33:18;21.27;;;6.77;;
13797;SDS011;6970;51.340;3.240;2023-07-28T02:35:51;19.23;;;6.70;;
13797;SDS011;6970;51.340;3.240;2023-07-28T02:40:52;13.53;;;6.30;;
13797;SDS011;6970;51.340;3.240;2023-07-28T02:43:20;15.07;;;5.93;;
13797;SDS011;6970;51.340;3.240;2023-07-28T02:48:27;14.27;;;5.47;;
13797;SDS011;6970;51.340;3.240;2023-07-28T02:50:57;12.70;;;5.17;;
13797;SDS011;6970;51.340;3.240;2023-07-28T02:53:25;17.07;;;5.67;;
13797;SDS011;6970;51.340;3.240;2023-07-28T02:55:56;11.33;;;5.37;;
13797;SDS011;6970;51.340;3.240;2023-07-28T03:00:56;14.93;;;5.80;;
13797;SDS011;6970;51.340;3.240;2023-07-28T03:05:53;19.30;;;6.43;;
13797;SDS011;6970;51.340;3.240;2023-07-28T03:08:24;13.77;;;5.33;;
13797;SDS011;6970;51.340;3.240;2023-07-28T03:10:55;21.67;;;7.00;;
13797;SDS011;6970;51.340;3.240;2023-07-28T03:15:56;13.70;;;6.27;;
13797;SDS011;6970;51.340;3.240;2023-07-28T03:18:24;16.93;;;6.83;;
13797;SDS011;6970;51.340;3.240;2023-07-28T03:20:51;18.93;;;7.67;;
13797;SDS011;6970;51.340;3.240;2023-07-28T03:23:19;18.53;;;8.63;;
13797;SDS011;6970;51.340;3.240;2023-07-28T03:25:46;18.07;;;7.43;;
13797;SDS011;6970;51.340;3.240;2023-07-28T03:28:13;15.87;;;7.60;;
13797;SDS011;6970;51.340;3.240;2023-07-28T03:30:41;14.37;;;7.10;;
13797;SDS011;6970;51.340;3.240;2023-07-28T03:33:10;17.37;;;7.93;;
13797;SDS011;6970;51.340;3.240;2023-07-28T03:35:38;12.70;;;6.70;;
13797;SDS011;6970;51.340;3.240;2023-07-28T03:38:08;10.97;;;6.13;;
13797;SDS011;6970;51.340;3.240;2023-07-28T03:43:06;13.93;;;6.50;;
13797;SDS011;6970;51.340;3.240;2023-07-28T03:45:35;13.13;;;6.43;;
13797;SDS011;6970;51.340;3.240;2023-07-28T03:50:33;9.80;;;6.53;;
13797;SDS011;6970;51.340;3.240;2023-07-28T03:53:00;14.87;;;6.90;;
13797;SDS011;6970;51.340;3.240;2023-07-28T03:55:28;11.40;;;6.53;;
13797;SDS011;6970;51.340;3.240;2023-07-28T03:57:56;11.30;;;6.77;;
13797;SDS011;6970;51.340;3.240;2023-07-28T04:02:54;13.43;;;6.40;;
13797;SDS011;6970;51.340;3.240;2023-07-28T04:05:23;14.27;;;6.67;;
13797;SDS011;6970;51.340;3.240;2023-07-28T04:07:51;12.50;;;7.77;;
13797;SDS011;6970;51.340;3.240;2023-07-28T04:10:18;12.33;;;7.47;;
13797;SDS011;6970;51.340;3.240;2023-07-28T04:12:48;13.90;;;8.13;;
13797;SDS011;6970;51.340;3.240;2023-07-28T04:15:17;21.67;;;9.13;;
13797;SDS011;6970;51.340;3.240;2023-07-28T04:17:47;14.63;;;7.83;;
13797;SDS011;6970;51.340;3.240;2023-07-28T04:20:18;20.10;;;9.27;;
13797;SDS011;6970;51.340;3.240;2023-07-28T04:22:46;14.27;;;8.80;;
13797;SDS011;6970;51.340;3.240;2023-07-28T04:25:16;25.40;;;9.93;;
13797;SDS011;6970;51.340;3.240;2023-07-28T04:27:45;22.63;;;8.90;;
13797;SDS011;6970;51.340;3.240;2023-07-28T04:32:42;17.83;;;9.20;;
13797;SDS011;6970;51.340;3.240;2023-07-28T04:35:10;20.80;;;9.73;;
13797;SDS011;6970;51.340;3.240;2023-07-28T04:37:37;24.83;;;9.90;;
13797;SDS011;6970;51.340;3.240;2023-07-28T04:40:06;24.87;;;10.00;;
13797;SDS011;6970;51.340;3.240;2023-07-28T04:42:36;22.43;;;9.37;;
13797;SDS011;6970;51.340;3.240;2023-07-28T04:47:36;19.13;;;9.70;;
13797;SDS011;6970;51.340;3.240;2023-07-28T04:50:06;21.90;;;10.20;;
13797;SDS011;6970;51.340;3.240;2023-07-28T04:52:33;22.73;;;10.23;;
13797;SDS011;6970;51.340;3.240;2023-07-28T04:55:03;19.37;;;9.73;;
13797;SDS011;6970;51.340;3.240;2023-07-28T04:57:33;19.83;;;10.67;;
13797;SDS011;6970;51.340;3.240;2023-07-28T05:00:01;21.13;;;10.17;;
13797;SDS011;6970;51.340;3.240;2023-07-28T05:02:30;20.83;;;9.83;;
13797;SDS011;6970;51.340;3.240;2023-07-28T05:04:58;20.03;;;9.83;;
13797;SDS011;6970;51.340;3.240;2023-07-28T05:07:28;16.87;;;9.27;;
13797;SDS011;6970;51.340;3.240;2023-07-28T05:09:57;19.07;;;8.80;;
13797;SDS011;6970;51.340;3.240;2023-07-28T05:12:27;17.37;;;9.27;;
13797;SDS011;6970;51.340;3.240;2023-07-28T05:19:54;16.00;;;8.77;;
13797;SDS011;6970;51.340;3.240;2023-07-28T05:22:22;21.00;;;9.13;;
13797;SDS011;6970;51.340;3.240;2023-07-28T05:24:50;19.33;;;9.63;;
13797;SDS011;6970;51.340;3.240;2023-07-28T05:27:20;13.67;;;9.20;;
13797;SDS011;6970;51.340;3.240;2023-07-28T05:29:48;15.10;;;9.83;;
13797;SDS011;6970;51.340;3.240;2023-07-28T05:34:45;19.13;;;10.30;;
13797;SDS011;6970;51.340;3.240;2023-07-28T05:37:13;18.77;;;9.53;;
13797;SDS011;6970;51.340;3.240;2023-07-28T05:39:42;15.90;;;10.10;;
13797;SDS011;6970;51.340;3.240;2023-07-28T05:44:44;19.97;;;11.17;;
13797;SDS011;6970;51.340;3.240;2023-07-28T05:47:13;16.27;;;12.83;;
13797;SDS011;6970;51.340;3.240;2023-07-28T05:49:43;20.77;;;14.03;;
13797;SDS011;6970;51.340;3.240;2023-07-28T05:52:12;20.33;;;12.87;;
13797;SDS011;6970;51.340;3.240;2023-07-28T05:59:40;18.03;;;12.33;;
13797;SDS011;6970;51.340;3.240;2023-07-28T06:02:11;22.67;;;12.53;;
13797;SDS011;6970;51.340;3.240;2023-07-28T06:04:38;20.80;;;13.83;;
13797;SDS011;6970;51.340;3.240;2023-07-28T06:07:07;24.80;;;14.00;;
13797;SDS011;6970;51.340;3.240;2023-07-28T06:09:36;24.10;;;14.60;;
13797;SDS011;6970;51.340;3.240;2023-07-28T06:12:04;25.37;;;15.47;;
13797;SDS011;6970;51.340;3.240;2023-07-28T06:14:32;23.43;;;15.00;;
13797;SDS011;6970;51.340;3.240;2023-07-28T06:19:33;27.07;;;15.70;;
13797;SDS011;6970;51.340;3.240;2023-07-28T06:22:02;25.03;;;15.70;;
13797;SDS011;6970;51.340;3.240;2023-07-28T06:24:29;30.07;;;19.57;;
13797;SDS011;6970;51.340;3.240;2023-07-28T06:27:00;32.13;;;20.07;;
13797;SDS011;6970;51.340;3.240;2023-07-28T06:29:33;39.23;;;22.80;;
13797;SDS011;6970;51.340;3.240;2023-07-28T06:32:02;39.30;;;24.37;;
13797;SDS011;6970;51.340;3.240;2023-07-28T06:34:35;34.67;;;24.03;;
13797;SDS011;6970;51.340;3.240;2023-07-28T06:37:04;44.43;;;23.57;;
13797;SDS011;6970;51.340;3.240;2023-07-28T06:39:31;41.77;;;24.37;;
13797;SDS011;6970;51.340;3.240;2023-07-28T06:47:00;35.20;;;20.87;;
13797;SDS011;6970;51.340;3.240;2023-07-28T06:49:30;38.97;;;22.33;;
13797;SDS011;6970;51.340;3.240;2023-07-28T06:51:59;28.87;;;20.63;;
13797;SDS011;6970;51.340;3.240;2023-07-28T06:54:27;38.50;;;22.57;;
13797;SDS011;6970;51.340;3.240;2023-07-28T06:56:55;30.47;;;20.83;;
13797;SDS011;6970;51.340;3.240;2023-07-28T06:59:25;25.77;;;19.83;;
13797;SDS011;6970;51.340;3.240;2023-07-28T07:01:54;29.47;;;20.53;;
13797;SDS011;6970;51.340;3.240;2023-07-28T07:04:23;33.57;;;21.90;;
13797;SDS011;6970;51.340;3.240;2023-07-28T07:06:51;36.10;;;23.10;;
13797;SDS011;6970;51.340;3.240;2023-07-28T07:09:19;31.13;;;21.10;;
13797;SDS011;6970;51.340;3.240;2023-07-28T07:11:48;33.93;;;23.07;;
13797;SDS011;6970;51.340;3.240;2023-07-28T07:14:17;32.97;;;21.90;;
13797;SDS011;6970;51.340;3.240;2023-07-28T07:19:16;30.50;;;20.30;;
13797;SDS011;6970;51.340;3.240;2023-07-28T07:21:43;26.83;;;20.27;;
13797;SDS011;6970;51.340;3.240;2023-07-28T07:24:11;28.00;;;21.73;;
13797;SDS011;6970;51.340;3.240;2023-07-28T07:26:41;30.67;;;21.17;;
13797;SDS011;6970;51.340;3.240;2023-07-28T07:29:08;31.70;;;20.80;;
13797;SDS011;6970;51.340;3.240;2023-07-28T07:31:42;34.17;;;23.50;;
13797;SDS011;6970;51.340;3.240;2023-07-28T07:34:11;33.83;;;22.87;;
13797;SDS011;6970;51.340;3.240;2023-07-28T07:36:42;35.03;;;22.63;;
13797;SDS011;6970;51.340;3.240;2023-07-28T07:39:09;40.27;;;25.63;;
13797;SDS011;6970;51.340;3.240;2023-07-28T07:41:38;35.17;;;25.33;;
13797;SDS011;6970;51.340;3.240;2023-07-28T07:44:06;33.40;;;24.33;;
13797;SDS011;6970;51.340;3.240;2023-07-28T07:46:34;37.10;;;25.03;;
13797;SDS011;6970;51.340;3.240;2023-07-28T07:49:02;33.97;;;23.63;;
13797;SDS011;6970;51.340;3.240;2023-07-28T07:51:34;38.33;;;23.57;;
13797;SDS011;6970;51.340;3.240;2023-07-28T07:54:04;38.77;;;25.70;;
13797;SDS011;6970;51.340;3.240;2023-07-28T07:59:02;39.40;;;25.17;;
13797;SDS011;6970;51.340;3.240;2023-07-28T08:04:03;35.60;;;24.23;;
13797;SDS011;6970;51.340;3.240;2023-07-28T08:06:32;33.20;;;22.33;;
13797;SDS011;6970;51.340;3.240;2023-07-28T08:09:00;32.27;;;22.77;;
13797;SDS011;6970;51.340;3.240;2023-07-28T08:11:28;31.03;;;21.97;;
13797;SDS011;6970;51.340;3.240;2023-07-28T08:13:55;32.47;;;23.10;;
13797;SDS011;6970;51.340;3.240;2023-07-28T08:18:56;32.73;;;21.37;;
13797;SDS011;6970;51.340;3.240;2023-07-28T08:21:25;33.00;;;21.50;;
13797;SDS011;6970;51.340;3.240;2023-07-28T08:26:24;27.10;;;20.50;;
13797;SDS011;6970;51.340;3.240;2023-07-28T08:28:51;31.53;;;21.07;;
13797;SDS011;6970;51.340;3.240;2023-07-28T08:31:18;32.00;;;20.90;;
13797;SDS011;6970;51.340;3.240;2023-07-28T08:33:46;25.43;;;18.80;;
13797;SDS011;6970;51.340;3.240;2023-07-28T08:36:13;27.27;;;19.10;;
13797;SDS011;6970;51.340;3.240;2023-07-28T08:38:44;32.30;;;19.10;;
13797;SDS011;6970;51.340;3.240;2023-07-28T08:41:15;24.90;;;18.93;;
13797;SDS011;6970;51.340;3.240;2023-07-28T08:43:42;21.93;;;17.97;;
13797;SDS011;6970;51.340;3.240;2023-07-28T08:46:09;23.20;;;17.63;;
13797;SDS011;6970;51.340;3.240;2023-07-28T08:48:37;25.40;;;17.17;;
13797;SDS011;6970;51.340;3.240;2023-07-28T08:51:05;17.93;;;15.80;;
13797;SDS011;6970;51.340;3.240;2023-07-28T08:56:07;17.63;;;14.80;;
13797;SDS011;6970;51.340;3.240;2023-07-28T08:58:34;16.83;;;15.13;;
13797;SDS011;6970;51.340;3.240;2023-07-28T09:01:05;17.80;;;15.00;;
13797;SDS011;6970;51.340;3.240;2023-07-28T09:06:07;21.13;;;15.77;;
13797;SDS011;6970;51.340;3.240;2023-07-28T09:08:37;15.73;;;13.77;;
13797;SDS011;6970;51.340;3.240;2023-07-28T09:11:10;15.70;;;14.07;;
13797;SDS011;6970;51.340;3.240;2023-07-28T09:13:40;16.53;;;13.47;;
13797;SDS011;6970;51.340;3.240;2023-07-28T09:16:18;14.47;;;13.07;;
13797;SDS011;6970;51.340;3.240;2023-07-28T09:18:49;11.73;;;9.77;;
13797;SDS011;6970;51.340;3.240;2023-07-28T09:21:20;10.70;;;9.60;;
13797;SDS011;6970;51.340;3.240;2023-07-28T09:23:49;10.93;;;10.03;;
13797;SDS011;6970;51.340;3.240;2023-07-28T09:26:19;11.13;;;10.17;;
13797;SDS011;6970;51.340;3.240;2023-07-28T09:31:28;19.80;;;17.80;;
13797;SDS011;6970;51.340;3.240;2023-07-28T09:36:29;19.90;;;17.13;;
13797;SDS011;6970;51.340;3.240;2023-07-28T09:41:31;19.20;;;16.27;;
13797;SDS011;6970;51.340;3.240;2023-07-28T09:44:02;14.73;;;12.97;;
13797;SDS011;6970;51.340;3.240;2023-07-28T09:46:32;10.33;;;9.43;;
13797;SDS011;6970;51.340;3.240;2023-07-28T09:51:36;7.10;;;6.40;;
13797;SDS011;6970;51.340;3.240;2023-07-28T09:54:06;5.87;;;5.37;;
13797;SDS011;6970;51.340;3.240;2023-07-28T09:59:15;5.83;;;3.80;;
13797;SDS011;6970;51.340;3.240;2023-07-28T10:01:47;4.97;;;4.47;;
13797;SDS011;6970;51.340;3.240;2023-07-28T10:04:15;5.07;;;4.43;;
13797;SDS011;6970;51.340;3.240;2023-07-28T10:06:43;6.13;;;5.37;;
13797;SDS011;6970;51.340;3.240;2023-07-28T10:09:11;5.23;;;4.73;;
13797;SDS011;6970;51.340;3.240;2023-07-28T10:11:41;6.90;;;6.00;;
13797;SDS011;6970;51.340;3.240;2023-07-28T10:14:10;7.20;;;6.50;;
13797;SDS011;6970;51.340;3.240;2023-07-28T10:16:55;7.30;;;6.47;;
13797;SDS011;6970;51.340;3.240;2023-07-28T10:19:28;7.20;;;6.50;;
13797;SDS011;6970;51.340;3.240;2023-07-28T10:22:15;6.23;;;5.60;;
13797;SDS011;6970;51.340;3.240;2023-07-28T10:24:55;5.73;;;5.33;;
13797;SDS011;6970;51.340;3.240;2023-07-28T10:27:37;5.50;;;5.00;;
13797;SDS011;6970;51.340;3.240;2023-07-28T10:30:10;5.60;;;4.93;;
13797;SDS011;6970;51.340;3.240;2023-07-28T10:32:48;4.83;;;4.43;;
13797;SDS011;6970;51.340;3.240;2023-07-28T10:37:55;5.63;;;5.13;;
13797;SDS011;6970;51.340;3.240;2023-07-28T10:40:32;4.67;;;4.33;;
13797;SDS011;6970;51.340;3.240;2023-07-28T10:45:32;4.30;;;3.60;;
13797;SDS011;6970;51.340;3.240;2023-07-28T10:47:59;4.57;;;3.30;;
13797;SDS011;6970;51.340;3.240;2023-07-28T10:50:28;3.43;;;2.80;;
13797;SDS011;6970;51.340;3.240;2023-07-28T10:53:00;3.40;;;3.10;;
13797;SDS011;6970;51.340;3.240;2023-07-28T10:58:00;3.27;;;1.60;;
13797;SDS011;6970;51.340;3.240;2023-07-28T11:00:27;1.77;;;1.17;;
13797;SDS011;6970;51.340;3.240;2023-07-28T11:02:55;2.17;;;1.10;;
13797;SDS011;6970;51.340;3.240;2023-07-28T11:10:33;1.90;;;0.97;;
13797;SDS011;6970;51.340;3.240;2023-07-28T11:13:03;1.23;;;1.10;;
13797;SDS011;6970;51.340;3.240;2023-07-28T11:15:54;1.00;;;1.00;;
13797;SDS011;6970;51.340;3.240;2023-07-28T11:18:22;2.07;;;0.90;;
13797;SDS011;6970;51.340;3.240;2023-07-28T11:20:53;1.10;;;1.00;;
13797;SDS011;6970;51.340;3.240;2023-07-28T11:23:22;1.20;;;0.90;;
13797;SDS011;6970;51.340;3.240;2023-07-28T11:25:49;1.47;;;1.30;;
13797;SDS011;6970;51.340;3.240;2023-07-28T11:28:28;1.50;;;1.40;;
13797;SDS011;6970;51.340;3.240;2023-07-28T11:33:29;2.10;;;1.90;;
13797;SDS011;6970;51.340;3.240;2023-07-28T11:35:59;7.17;;;1.77;;
13797;SDS011;6970;51.340;3.240;2023-07-28T11:40:59;2.90;;;1.57;;
13797;SDS011;6970;51.340;3.240;2023-07-28T11:43:27;1.57;;;1.47;;
13797;SDS011;6970;51.340;3.240;2023-07-28T11:45:55;1.70;;;1.60;;
13797;SDS011;6970;51.340;3.240;2023-07-28T11:48:23;2.17;;;1.97;;
13797;SDS011;6970;51.340;3.240;2023-07-28T11:50:59;1.60;;;1.50;;
13797;SDS011;6970;51.340;3.240;2023-07-28T11:53:32;4.80;;;1.90;;
13797;SDS011;6970;51.340;3.240;2023-07-28T11:56:03;1.83;;;1.50;;
13797;SDS011;6970;51.340;3.240;2023-07-28T11:58:36;2.20;;;1.87;;
13797;SDS011;6970;51.340;3.240;2023-07-28T12:03:37;1.97;;;1.80;;
13797;SDS011;6970;51.340;3.240;2023-07-28T12:06:05;1.90;;;1.53;;
13797;SDS011;6970;51.340;3.240;2023-07-28T12:09:04;3.93;;;1.90;;
13797;SDS011;6970;51.340;3.240;2023-07-28T12:11:36;2.73;;;1.90;;
13797;SDS011;6970;51.340;3.240;2023-07-28T12:14:15;2.93;;;1.90;;
13797;SDS011;6970;51.340;3.240;2023-07-28T12:16:47;3.43;;;2.20;;
13797;SDS011;6970;51.340;3.240;2023-07-28T12:19:17;3.30;;;2.10;;
13797;SDS011;6970;51.340;3.240;2023-07-28T12:21:44;3.27;;;2.13;;
13797;SDS011;6970;51.340;3.240;2023-07-28T12:26:41;4.40;;;2.10;;
13797;SDS011;6970;51.340;3.240;2023-07-28T12:29:08;5.33;;;2.20;;
13797;SDS011;6970;51.340;3.240;2023-07-28T12:34:11;2.13;;;1.77;;
13797;SDS011;6970;51.340;3.240;2023-07-28T12:36:58;3.17;;;2.23;;
13797;SDS011;6970;51.340;3.240;2023-07-28T12:39:26;8.47;;;2.27;;
13797;SDS011;6970;51.340;3.240;2023-07-28T12:41:57;3.23;;;1.83;;
13797;SDS011;6970;51.340;3.240;2023-07-28T12:44:27;3.57;;;2.27;;
13797;SDS011;6970;51.340;3.240;2023-07-28T12:46:58;2.87;;;1.97;;
13797;SDS011;6970;51.340;3.240;2023-07-28T12:49:29;3.67;;;2.03;;
13797;SDS011;6970;51.340;3.240;2023-07-28T12:51:58;3.80;;;2.30;;
13797;SDS011;6970;51.340;3.240;2023-07-28T12:54:25;6.97;;;2.77;;
13797;SDS011;6970;51.340;3.240;2023-07-28T12:56:53;5.33;;;3.20;;
13797;SDS011;6970;51.340;3.240;2023-07-28T12:59:26;5.27;;;3.20;;
13797;SDS011;6970;51.340;3.240;2023-07-28T13:01:54;6.47;;;3.77;;
13797;SDS011;6970;51.340;3.240;2023-07-28T13:04:22;4.53;;;2.87;;
13797;SDS011;6970;51.340;3.240;2023-07-28T13:06:52;7.03;;;2.70;;
13797;SDS011;6970;51.340;3.240;2023-07-28T13:09:40;5.73;;;2.33;;
13797;SDS011;6970;51.340;3.240;2023-07-28T13:12:11;6.10;;;2.23;;
13797;SDS011;6970;51.340;3.240;2023-07-28T13:17:17;4.47;;;1.90;;
13797;SDS011;6970;51.340;3.240;2023-07-28T13:19:45;3.43;;;1.90;;
13797;SDS011;6970;51.340;3.240;2023-07-28T13:22:12;5.73;;;1.97;;
13797;SDS011;6970;51.340;3.240;2023-07-28T13:24:42;7.20;;;1.80;;
13797;SDS011;6970;51.340;3.240;2023-07-28T13:27:11;3.70;;;1.70;;
13797;SDS011;6970;51.340;3.240;2023-07-28T13:29:40;4.63;;;1.93;;
13797;SDS011;6970;51.340;3.240;2023-07-28T13:32:18;5.43;;;1.90;;
13797;SDS011;6970;51.340;3.240;2023-07-28T13:34:51;5.83;;;1.80;;
13797;SDS011;6970;51.340;3.240;2023-07-28T13:37:22;3.47;;;1.70;;
13797;SDS011;6970;51.340;3.240;2023-07-28T13:39:51;3.23;;;1.23;;
13797;SDS011;6970;51.340;3.240;2023-07-28T13:42:19;4.33;;;1.40;;
13797;SDS011;6970;51.340;3.240;2023-07-28T13:49:56;4.60;;;2.00;;
13797;SDS011;6970;51.340;3.240;2023-07-28T13:52:27;3.57;;;1.33;;
13797;SDS011;6970;51.340;3.240;2023-07-28T13:54:55;4.60;;;1.73;;
13797;SDS011;6970;51.340;3.240;2023-07-28T13:57:26;6.50;;;2.07;;
13797;SDS011;6970;51.340;3.240;2023-07-28T13:59:53;4.17;;;1.77;;
13797;SDS011;6970;51.340;3.240;2023-07-28T14:02:20;2.73;;;1.50;;
13797;SDS011;6970;51.340;3.240;2023-07-28T14:07:22;6.57;;;1.50;;
13797;SDS011;6970;51.340;3.240;2023-07-28T14:09:49;4.57;;;1.50;;
13797;SDS011;6970;51.340;3.240;2023-07-28T14:12:17;3.30;;;1.60;;
13797;SDS011;6970;51.340;3.240;2023-07-28T14:14:46;4.70;;;1.70;;
13797;SDS011;6970;51.340;3.240;2023-07-28T14:19:45;3.57;;;1.50;;
13797;SDS011;6970;51.340;3.240;2023-07-28T14:22:16;2.67;;;1.40;;
13797;SDS011;6970;51.340;3.240;2023-07-28T14:24:43;2.63;;;1.73;;
13797;SDS011;6970;51.340;3.240;2023-07-28T14:27:10;5.50;;;1.57;;
13797;SDS011;6970;51.340;3.240;2023-07-28T14:29:39;4.67;;;1.83;;
13797;SDS011;6970;51.340;3.240;2023-07-28T14:32:06;3.20;;;1.50;;
13797;SDS011;6970;51.340;3.240;2023-07-28T14:34:35;3.37;;;1.53;;
13797;SDS011;6970;51.340;3.240;2023-07-28T14:37:04;2.40;;;1.40;;
13797;SDS011;6970;51.340;3.240;2023-07-28T14:39:32;4.53;;;1.60;;
13797;SDS011;6970;51.340;3.240;2023-07-28T14:41:59;5.50;;;1.47;;
13797;SDS011;6970;51.340;3.240;2023-07-28T14:44:29;3.30;;;1.20;;
13797;SDS011;6970;51.340;3.240;2023-07-28T14:46:59;2.27;;;1.57;;
13797;SDS011;6970;51.340;3.240;2023-07-28T14:49:26;2.23;;;1.30;;
13797;SDS011;6970;51.340;3.240;2023-07-28T14:51:54;5.27;;;2.03;;
13797;SDS011;6970;51.340;3.240;2023-07-28T14:54:23;3.60;;;1.87;;
13797;SDS011;6970;51.340;3.240;2023-07-28T14:56:52;8.20;;;1.90;;
13797;SDS011;6970;51.340;3.240;2023-07-28T15:01:56;4.07;;;1.60;;
13797;SDS011;6970;51.340;3.240;2023-07-28T15:04:25;3.23;;;1.37;;
13797;SDS011;6970;51.340;3.240;2023-07-28T15:06:53;3.43;;;1.40;;
13797;SDS011;6970;51.340;3.240;2023-07-28T15:09:21;2.33;;;1.10;;
13797;SDS011;6970;51.340;3.240;2023-07-28T15:11:50;3.47;;;1.30;;
13797;SDS011;6970;51.340;3.240;2023-07-28T15:16:47;2.83;;;1.57;;
13797;SDS011;6970;51.340;3.240;2023-07-28T15:19:16;2.80;;;1.70;;
13797;SDS011;6970;51.340;3.240;2023-07-28T15:21:46;5.37;;;1.83;;
13797;SDS011;6970;51.340;3.240;2023-07-28T15:26:46;2.53;;;1.57;;
13797;SDS011;6970;51.340;3.240;2023-07-28T15:29:17;3.77;;;1.60;;
13797;SDS011;6970;51.340;3.240;2023-07-28T15:31:47;1.83;;;1.17;;
13797;SDS011;6970;51.340;3.240;2023-07-28T15:34:14;4.73;;;1.40;;
13797;SDS011;6970;51.340;3.240;2023-07-28T15:36:43;3.27;;;1.60;;
13797;SDS011;6970;51.340;3.240;2023-07-28T15:39:12;3.60;;;1.33;;
13797;SDS011;6970;51.340;3.240;2023-07-28T15:41:41;2.97;;;1.57;;
13797;SDS011;6970;51.340;3.240;2023-07-28T15:44:08;3.63;;;1.30;;
13797;SDS011;6970;51.340;3.240;2023-07-28T15:46:42;4.03;;;1.83;;
13797;SDS011;6970;51.340;3.240;2023-07-28T15:49:09;5.47;;;1.40;;
13797;SDS011;6970;51.340;3.240;2023-07-28T15:51:37;3.07;;;1.20;;
13797;SDS011;6970;51.340;3.240;2023-07-28T15:54:04;3.70;;;1.77;;
13797;SDS011;6970;51.340;3.240;2023-07-28T15:56:32;3.47;;;1.30;;
13797;SDS011;6970;51.340;3.240;2023-07-28T15:59:01;3.63;;;1.70;;
13797;SDS011;6970;51.340;3.240;2023-07-28T16:01:30;5.20;;;1.60;;
13797;SDS011;6970;51.340;3.240;2023-07-28T16:03:57;3.10;;;1.63;;
13797;SDS011;6970;51.340;3.240;2023-07-28T16:06:24;3.07;;;1.37;;
13797;SDS011;6970;51.340;3.240;2023-07-28T16:08:54;3.47;;;1.23;;
13797;SDS011;6970;51.340;3.240;2023-07-28T16:11:44;3.83;;;1.40;;
13797;SDS011;6970;51.340;3.240;2023-07-28T16:14:11;3.77;;;1.43;;
13797;SDS011;6970;51.340;3.240;2023-07-28T16:16:40;2.97;;;1.43;;
13797;SDS011;6970;51.340;3.240;2023-07-28T16:19:09;3.00;;;1.10;;
13797;SDS011;6970;51.340;3.240;2023-07-28T16:21:40;2.97;;;1.40;;
13797;SDS011;6970;51.340;3.240;2023-07-28T16:24:09;2.53;;;1.50;;
13797;SDS011;6970;51.340;3.240;2023-07-28T16:26:37;3.10;;;1.07;;
13797;SDS011;6970;51.340;3.240;2023-07-28T16:29:07;2.23;;;1.17;;
13797;SDS011;6970;51.340;3.240;2023-07-28T16:31:36;4.17;;;1.50;;
13797;SDS011;6970;51.340;3.240;2023-07-28T16:34:05;3.53;;;1.20;;
13797;SDS011;6970;51.340;3.240;2023-07-28T16:36:32;2.23;;;1.10;;
13797;SDS011;6970;51.340;3.240;2023-07-28T16:38:59;2.27;;;1.00;;
13797;SDS011;6970;51.340;3.240;2023-07-28T16:41:29;1.33;;;0.97;;
13797;SDS011;6970;51.340;3.240;2023-07-28T16:43:57;2.87;;;0.80;;
13797;SDS011;6970;51.340;3.240;2023-07-28T16:46:27;2.60;;;1.10;;
13797;SDS011;6970;51.340;3.240;2023-07-28T16:48:56;3.33;;;1.37;;
13797;SDS011;6970;51.340;3.240;2023-07-28T16:51:25;3.07;;;0.80;;
13797;SDS011;6970;51.340;3.240;2023-07-28T16:53:55;5.30;;;1.30;;
13797;SDS011;6970;51.340;3.240;2023-07-28T16:56:22;4.43;;;1.07;;
13797;SDS011;6970;51.340;3.240;2023-07-28T16:58:53;4.57;;;1.03;;
13797;SDS011;6970;51.340;3.240;2023-07-28T17:01:26;4.70;;;1.90;;
13797;SDS011;6970;51.340;3.240;2023-07-28T17:03:56;6.07;;;1.73;;
13797;SDS011;6970;51.340;3.240;2023-07-28T17:06:23;6.67;;;1.70;;
13797;SDS011;6970;51.340;3.240;2023-07-28T17:08:50;4.10;;;2.00;;
13797;SDS011;6970;51.340;3.240;2023-07-28T17:11:19;4.37;;;1.30;;
13797;SDS011;6970;51.340;3.240;2023-07-28T17:13:47;3.03;;;1.23;;
13797;SDS011;6970;51.340;3.240;2023-07-28T17:16:20;4.43;;;1.50;;
13797;SDS011;6970;51.340;3.240;2023-07-28T17:18:48;4.43;;;1.40;;
13797;SDS011;6970;51.340;3.240;2023-07-28T17:21:17;3.67;;;1.43;;
13797;SDS011;6970;51.340;3.240;2023-07-28T17:23:46;5.03;;;1.50;;